• Join FlightAware (Why Join?)
  • Login
  • US Flag 
04:11AM EDT


 

Airport Tracker/Info


-or-


 

Live Flight TrackerFlight Track Log ✈ UAL4612 ✈ 21-Nov-2013 ✈ KMHT - KEWR

Flight Track Log - Related Links

Times and Time Zones

All times are in EST time to prevent confusion due to time zone crossing. See the UAL4612 flight status page for this flight to view local times or setup timezone preferences in your user account.

Time Position Orientation Groundspeed Altitude Reporting Facility
EST Latitude Longitude Course Direction KTS MPH feet Rate Location/Type
03:28PM 42.9167 -71.4500 281° West 165 190 1,000  Level KA90
03:30PM 42.9333 -71.5333 285° West 250 288 3,800 2,100 Climbing KA90
03:31PM 42.7446 -71.6760 295° West  Level Estimated
03:31PM 43.0167 -71.5667 344° North 277 319 6,000  Level KA90
03:32PM 42.6818 -71.7558 276° West  Level Estimated
03:32PM 43.0944 -71.6203 333° Northwest 281 323 9,000  Level Boston Center
03:33PM 42.7435 -71.8371 316° Northwest  Level FlightAware Approximate
03:33PM 43.1258 -71.7108 295° West 269 310 11,000  Level Boston Center
03:34PM 42.6833 -71.9086 281° West  Level Estimated
03:34PM 43.1311 -71.8344 273° West 302 348 12,300  Level Boston Center
03:35PM 43.1375 -71.9572 274° West 322 371 13,700 1,320 Climbing Boston Center
03:36PM 43.1439 -72.0839 274° West 335 386 15,100 1,320 Climbing Boston Center
03:37PM 43.1478 -72.2119 272° West 338 389 16,500 1,260 Climbing Boston Center
03:38PM 43.1531 -72.3319 273° West 335 386 17,800 720 Climbing Boston Center
03:39PM 43.1589 -72.4600 274° West 339 390 18,000 60 Climbing Boston Center
03:40PM 43.1636 -72.5997 273° West 364 419 18,000 240 Level Boston Center
03:41PM 43.1672 -72.7669 272° West 369 425 18,500 660 Climbing Boston Center
03:42PM 43.1258 -72.8797 243° Southwest 361 415 19,400 720 Climbing Boston Center
03:43PM 43.0719 -73.0142 241° Southwest 373 429 20,000 240 Climbing Boston Center
03:44PM 43.0203 -73.1400 241° Southwest 381 438 20,000  Level Boston Center
03:45PM 42.9692 -73.2669 241° Southwest 384 442 20,000 -180 Level Boston Center
03:46PM 42.9139 -73.4000 240° Southwest 379 436 19,700 -540 Descending Boston Center
03:47PM 42.8644 -73.5211 241° Southwest 369 425 19,000 -1,200 Descending Boston Center
03:48PM 42.8147 -73.6408 241° Southwest 345 397 17,400 -1,500 Descending Boston Center
03:49PM 42.7642 -73.7631 241° Southwest 344 396 16,000 -720 Descending Boston Center
03:50PM 42.6800 -73.8322 211° Southwest 354 407 16,000  Level Boston Center
03:51PM 42.5911 -73.8750 200° South 342 394 16,000  Level Boston Center
03:52PM 42.4997 -73.9150 198° South 344 396 16,000  Level Boston Center
03:53PM 42.4031 -73.9583 198° South 365 420 16,000  Level Boston Center
03:54PM 42.2953 -74.0067 198° South 378 435 16,000  Level Boston Center
03:55PM 42.1944 -74.0511 198° South 381 438 16,000  Level Boston Center
03:56PM 42.0936 -74.0956 198° South 387 445 16,000  Level Boston Center
03:57PM 41.9869 -74.1439 199° South 378 435 16,000 -420 Level Boston Center
03:58PM 41.8906 -74.1850 198° South 363 418 15,200 -1,140 Descending Boston Center
03:59PM 41.8047 -74.2228 198° South 329 379 13,700 -1,560 Descending Boston Center
04:00PM 41.7150 -74.2600 197° South 315 362 12,100 -1,560 Descending Boston Center
04:01PM 41.6397 -74.2928 198° South 289 333 10,600 -1,500 Descending Boston Center
04:02PM 41.5686 -74.3233 198° South 271 312 9,100 -1,260 Descending Boston Center
04:03PM 41.4928 -74.3556 198° South 268 308 8,000 -600 Descending Boston Center
04:04PM 41.4247 -74.3847 198° South 259 298 8,000 -300 Level Boston Center
04:05PM 41.3667 -74.4167 202° Southwest 265 305 7,500 -780 Descending New York TRACON
04:06PM 41.3000 -74.4500 201° Southwest 254 292 6,600 -780 Descending New York TRACON
04:07PM 41.2333 -74.4667 191° South 219 252 6,000 -300 Descending New York TRACON
04:08PM 41.1833 -74.4500 166° South 225 259 6,000 -360 Level New York TRACON
04:09PM 41.1167 -74.4167 159° South 229 264 5,300 -540 Descending New York TRACON
04:10PM 41.1000 -74.3333 105° East 252 290 5,000 -180 Descending New York TRACON
04:11PM 41.0833 -74.2667 108° East 207 238 5,000  Level New York TRACON
04:12PM 41.0667 -74.2000 108° East 200 230 5,000  Level New York TRACON
04:13PM 41.0333 -74.1833 159° South 172 198 5,000  Level New York TRACON
04:14PM 40.9833 -74.2000 194° South 164 189 5,000  Level New York TRACON
04:15PM 40.9333 -74.2000 180° South 182 209 5,000 -480 Level New York TRACON
04:16PM 40.9333 -74.1333 90° East 198 228 4,100 -960 Descending New York TRACON
04:17PM 40.9000 -74.0833 131° Southeast 182 209 3,100 -600 Descending New York TRACON
04:18PM 40.8500 -74.0833 180° South 167 192 3,000 -240 Descending New York TRACON
04:19PM 40.8167 -74.0833 180° South 163 188 2,700 -600 Descending New York TRACON
04:20PM 40.7667 -74.1167 207° Southwest 160 184 1,800 -840 Descending New York TRACON
04:21PM 40.7333 -74.1333 201° Southwest 126 145 1,000 -780 Descending New York TRACON
04:22PM 40.7000 -74.1500 201° Southwest 128 147 200 -840 Descending New York TRACON